This is the latest recevied weather packets stored in our database for station/object KK7ISX. If no packets are shown the sender has not sent any weather packets the latest 10 day(s).
| Time | Temp. | Humidity | Pressure | Rain* | Wind** | Luminosity | Snow |
|---|---|---|---|---|---|---|---|
| 1777567781 | 16.67° C | 44% | 1021.8 hPa | 0 mm | - | 565 W/m² | - |
| 1777567477 | 16.67° C | 45% | 1021.8 hPa | 0 mm | - | 549 W/m² | - |
| 1777567176 | 16.67° C | 47% | 1021.7 hPa | 0 mm | - | 535 W/m² | - |
| 1777566873 | 15.56° C | 50% | 1021.7 hPa | 0 mm | - | 519 W/m² | - |
| 1777566571 | 15° C | 50% | 1021.7 hPa | 0 mm | - | 505 W/m² | - |
| 1777566268 | 15.56° C | 50% | 1022 hPa | 0 mm | - | 491 W/m² | - |
| 1777565965 | 16.11° C | 50% | 1021.8 hPa | 0 mm | - | 472 W/m² | - |
| 1777565660 | 16.67° C | 45% | 1022.1 hPa | 0 mm | - | 460 W/m² | - |
| 1777565357 | 17.22° C | 45% | 1021.8 hPa | 0 mm | - | 441 W/m² | - |
| 1777565053 | 16.11° C | 45% | 1022.1 hPa | 0 mm | - | 423 W/m² | - |
| 1777564750 | 15.56° C | 47% | 1022 hPa | 0 mm | - | 406 W/m² | - |
| 1777564444 | 15.56° C | 46% | 1022.1 hPa | 0 mm | - | 392 W/m² | - |
| 1777564141 | 15° C | 49% | 1022.1 hPa | 0 mm | - | 378 W/m² | - |
| 1777563836 | 15° C | 49% | 1022.3 hPa | 0 mm | - | 365 W/m² | - |
| 1777563533 | 15° C | 50% | 1022.2 hPa | 0 mm | - | 346 W/m² | - |
| 1777563232 | 15° C | 48% | 1022.2 hPa | 0 mm | - | 337 W/m² | - |
| 1777562930 | 15° C | 49% | 1022.3 hPa | 0 mm | - | 323 W/m² | - |
| 1777562625 | 14.44° C | 50% | 1022.1 hPa | 0 mm | - | 301 W/m² | - |
| 1777562324 | 14.44° C | 51% | 1022.2 hPa | 0 mm | - | 286 W/m² | - |
| 1777562021 | 13.33° C | 55% | 1022.4 hPa | 0 mm | - | 268 W/m² | - |
| 1777561718 | 12.78° C | 55% | 1022.1 hPa | 0 mm | - | 248 W/m² | - |
| 1777561413 | 13.33° C | 56% | 1022.2 hPa | 0 mm | - | 177 W/m² | - |
| 1777561109 | 12.78° C | 56% | 1022.3 hPa | 0 mm | - | 202 W/m² | - |
| 1777560804 | 12.78° C | 55% | 1022.2 hPa | 0 mm | - | 218 W/m² | - |
| 1777560502 | 11.67° C | 58% | 1022.4 hPa | 0 mm | - | 210 W/m² | - |
* Rain latest hour (hover to see other rain measurements)
** Current wind speed in m/s (hover to see current wind gust speed)